sensor_id;sensor_type;location;lat;lon;timestamp;P1;durP1;ratioP1;P2;durP2;ratioP2
21890;SDS011;11110;52.386;16.940;2023-03-09T00:00:05;138.17;;;84.23;;
21890;SDS011;11110;52.386;16.940;2023-03-09T00:03:01;148.87;;;89.47;;
21890;SDS011;11110;52.386;16.940;2023-03-09T00:05:30;138.00;;;87.47;;
21890;SDS011;11110;52.386;16.940;2023-03-09T00:07:59;143.53;;;85.40;;
21890;SDS011;11110;52.386;16.940;2023-03-09T00:10:27;141.33;;;89.13;;
21890;SDS011;11110;52.386;16.940;2023-03-09T00:12:56;135.43;;;86.83;;
21890;SDS011;11110;52.386;16.940;2023-03-09T00:15:24;140.70;;;85.83;;
21890;SDS011;11110;52.386;16.940;2023-03-09T00:17:53;137.33;;;84.40;;
21890;SDS011;11110;52.386;16.940;2023-03-09T00:20:24;138.50;;;88.50;;
21890;SDS011;11110;52.386;16.940;2023-03-09T00:22:53;139.53;;;88.27;;
21890;SDS011;11110;52.386;16.940;2023-03-09T00:25:22;137.97;;;86.20;;
21890;SDS011;11110;52.386;16.940;2023-03-09T00:27:51;127.93;;;80.40;;
21890;SDS011;11110;52.386;16.940;2023-03-09T00:30:20;138.57;;;86.27;;
21890;SDS011;11110;52.386;16.940;2023-03-09T00:32:49;135.10;;;85.63;;
21890;SDS011;11110;52.386;16.940;2023-03-09T00:35:20;132.60;;;87.63;;
21890;SDS011;11110;52.386;16.940;2023-03-09T00:37:52;139.50;;;87.50;;
21890;SDS011;11110;52.386;16.940;2023-03-09T00:40:20;142.80;;;83.90;;
21890;SDS011;11110;52.386;16.940;2023-03-09T00:42:49;140.20;;;85.50;;
21890;SDS011;11110;52.386;16.940;2023-03-09T00:45:18;135.67;;;86.43;;
21890;SDS011;11110;52.386;16.940;2023-03-09T00:47:49;131.90;;;84.53;;
21890;SDS011;11110;52.386;16.940;2023-03-09T00:50:18;138.70;;;83.40;;
21890;SDS011;11110;52.386;16.940;2023-03-09T00:52:47;137.80;;;88.73;;
21890;SDS011;11110;52.386;16.940;2023-03-09T00:55:17;137.10;;;88.10;;
21890;SDS011;11110;52.386;16.940;2023-03-09T00:57:46;137.23;;;85.33;;
21890;SDS011;11110;52.386;16.940;2023-03-09T01:00:16;133.17;;;82.90;;
21890;SDS011;11110;52.386;16.940;2023-03-09T01:02:45;135.10;;;83.13;;
21890;SDS011;11110;52.386;16.940;2023-03-09T01:05:14;135.93;;;87.90;;
21890;SDS011;11110;52.386;16.940;2023-03-09T01:07:42;140.30;;;85.60;;
21890;SDS011;11110;52.386;16.940;2023-03-09T01:10:11;136.40;;;79.27;;
21890;SDS011;11110;52.386;16.940;2023-03-09T01:12:42;137.00;;;78.70;;
21890;SDS011;11110;52.386;16.940;2023-03-09T01:15:11;136.97;;;84.90;;
21890;SDS011;11110;52.386;16.940;2023-03-09T01:17:40;136.43;;;81.90;;
21890;SDS011;11110;52.386;16.940;2023-03-09T01:20:10;131.60;;;82.60;;
21890;SDS011;11110;52.386;16.940;2023-03-09T01:22:39;134.80;;;71.90;;
21890;SDS011;11110;52.386;16.940;2023-03-09T01:25:09;135.77;;;73.67;;
21890;SDS011;11110;52.386;16.940;2023-03-09T01:27:38;128.33;;;70.93;;
21890;SDS011;11110;52.386;16.940;2023-03-09T01:30:09;132.80;;;71.80;;
21890;SDS011;11110;52.386;16.940;2023-03-09T01:32:39;131.93;;;71.57;;
21890;SDS011;11110;52.386;16.940;2023-03-09T01:35:07;131.60;;;72.20;;
21890;SDS011;11110;52.386;16.940;2023-03-09T01:37:36;134.73;;;71.43;;
21890;SDS011;11110;52.386;16.940;2023-03-09T01:40:05;140.30;;;73.60;;
21890;SDS011;11110;52.386;16.940;2023-03-09T01:42:36;137.93;;;73.20;;
21890;SDS011;11110;52.386;16.940;2023-03-09T01:48:11;130.00;;;71.47;;
21890;SDS011;11110;52.386;16.940;2023-03-09T01:50:40;136.40;;;72.23;;
21890;SDS011;11110;52.386;16.940;2023-03-09T01:53:10;132.40;;;73.50;;
21890;SDS011;11110;52.386;16.940;2023-03-09T01:55:42;138.83;;;72.40;;
21890;SDS011;11110;52.386;16.940;2023-03-09T01:58:14;144.17;;;73.17;;
21890;SDS011;11110;52.386;16.940;2023-03-09T02:00:47;134.83;;;71.57;;
21890;SDS011;11110;52.386;16.940;2023-03-09T02:03:20;142.30;;;74.00;;
21890;SDS011;11110;52.386;16.940;2023-03-09T02:05:52;130.87;;;72.20;;
21890;SDS011;11110;52.386;16.940;2023-03-09T02:08:23;132.60;;;70.50;;
21890;SDS011;11110;52.386;16.940;2023-03-09T02:10:57;139.03;;;73.13;;
21890;SDS011;11110;52.386;16.940;2023-03-09T02:13:28;138.33;;;72.87;;
21890;SDS011;11110;52.386;16.940;2023-03-09T02:15:59;138.60;;;75.17;;
21890;SDS011;11110;52.386;16.940;2023-03-09T02:18:29;137.83;;;73.30;;
21890;SDS011;11110;52.386;16.940;2023-03-09T02:21:02;136.83;;;74.27;;
21890;SDS011;11110;52.386;16.940;2023-03-09T02:23:36;140.37;;;73.47;;
21890;SDS011;11110;52.386;16.940;2023-03-09T02:26:14;131.27;;;72.87;;
21890;SDS011;11110;52.386;16.940;2023-03-09T02:28:50;137.40;;;71.13;;
21890;SDS011;11110;52.386;16.940;2023-03-09T02:31:22;128.53;;;72.23;;
21890;SDS011;11110;52.386;16.940;2023-03-09T02:33:50;136.40;;;74.20;;
21890;SDS011;11110;52.386;16.940;2023-03-09T02:36:19;133.43;;;71.87;;
21890;SDS011;11110;52.386;16.940;2023-03-09T02:38:55;134.50;;;73.33;;
21890;SDS011;11110;52.386;16.940;2023-03-09T02:41:26;138.23;;;75.83;;
21890;SDS011;11110;52.386;16.940;2023-03-09T02:43:57;140.47;;;76.07;;
21890;SDS011;11110;52.386;16.940;2023-03-09T02:46:30;135.30;;;75.33;;
21890;SDS011;11110;52.386;16.940;2023-03-09T02:48:58;142.37;;;76.10;;
21890;SDS011;11110;52.386;16.940;2023-03-09T02:51:27;148.37;;;78.30;;
21890;SDS011;11110;52.386;16.940;2023-03-09T02:53:56;137.73;;;74.77;;
21890;SDS011;11110;52.386;16.940;2023-03-09T02:56:25;143.73;;;75.63;;
21890;SDS011;11110;52.386;16.940;2023-03-09T02:58:53;143.93;;;77.33;;
21890;SDS011;11110;52.386;16.940;2023-03-09T03:01:23;139.30;;;74.00;;
21890;SDS011;11110;52.386;16.940;2023-03-09T03:03:52;140.77;;;73.63;;
21890;SDS011;11110;52.386;16.940;2023-03-09T03:06:22;139.63;;;76.53;;
21890;SDS011;11110;52.386;16.940;2023-03-09T03:08:51;141.63;;;77.33;;
21890;SDS011;11110;52.386;16.940;2023-03-09T03:11:20;141.30;;;77.80;;
21890;SDS011;11110;52.386;16.940;2023-03-09T03:13:48;144.47;;;79.47;;
21890;SDS011;11110;52.386;16.940;2023-03-09T03:16:19;137.87;;;77.87;;
21890;SDS011;11110;52.386;16.940;2023-03-09T03:18:51;144.70;;;79.57;;
21890;SDS011;11110;52.386;16.940;2023-03-09T03:21:21;139.70;;;79.77;;
21890;SDS011;11110;52.386;16.940;2023-03-09T03:23:49;143.00;;;79.57;;
21890;SDS011;11110;52.386;16.940;2023-03-09T03:26:18;147.00;;;80.13;;
21890;SDS011;11110;52.386;16.940;2023-03-09T03:28:50;138.87;;;77.20;;
21890;SDS011;11110;52.386;16.940;2023-03-09T03:31:24;141.67;;;80.77;;
21890;SDS011;11110;52.386;16.940;2023-03-09T03:33:56;149.50;;;79.90;;
21890;SDS011;11110;52.386;16.940;2023-03-09T03:36:27;132.57;;;76.77;;
21890;SDS011;11110;52.386;16.940;2023-03-09T03:38:55;142.63;;;76.33;;
21890;SDS011;11110;52.386;16.940;2023-03-09T03:41:24;148.53;;;78.97;;
21890;SDS011;11110;52.386;16.940;2023-03-09T03:43:55;135.57;;;75.30;;
21890;SDS011;11110;52.386;16.940;2023-03-09T03:46:24;136.57;;;76.37;;
21890;SDS011;11110;52.386;16.940;2023-03-09T03:48:53;146.43;;;79.73;;
21890;SDS011;11110;52.386;16.940;2023-03-09T03:51:25;138.57;;;76.40;;
21890;SDS011;11110;52.386;16.940;2023-03-09T03:53:56;130.37;;;78.27;;
21890;SDS011;11110;52.386;16.940;2023-03-09T03:56:25;142.63;;;83.50;;
21890;SDS011;11110;52.386;16.940;2023-03-09T03:58:56;136.83;;;76.90;;
21890;SDS011;11110;52.386;16.940;2023-03-09T04:01:25;130.93;;;77.60;;
21890;SDS011;11110;52.386;16.940;2023-03-09T04:04:01;137.33;;;76.07;;
21890;SDS011;11110;52.386;16.940;2023-03-09T04:06:31;131.97;;;74.53;;
21890;SDS011;11110;52.386;16.940;2023-03-09T04:09:00;125.70;;;74.63;;
21890;SDS011;11110;52.386;16.940;2023-03-09T04:11:33;129.97;;;74.30;;
21890;SDS011;11110;52.386;16.940;2023-03-09T04:14:02;126.73;;;74.77;;
21890;SDS011;11110;52.386;16.940;2023-03-09T04:16:31;128.87;;;75.43;;
21890;SDS011;11110;52.386;16.940;2023-03-09T04:19:01;125.57;;;72.47;;
21890;SDS011;11110;52.386;16.940;2023-03-09T04:21:30;130.73;;;72.70;;
21890;SDS011;11110;52.386;16.940;2023-03-09T04:23:58;122.83;;;70.70;;
21890;SDS011;11110;52.386;16.940;2023-03-09T04:26:27;126.80;;;69.90;;
21890;SDS011;11110;52.386;16.940;2023-03-09T04:29:04;124.33;;;69.17;;
21890;SDS011;11110;52.386;16.940;2023-03-09T04:31:32;121.83;;;70.57;;
21890;SDS011;11110;52.386;16.940;2023-03-09T04:34:03;125.20;;;71.23;;
21890;SDS011;11110;52.386;16.940;2023-03-09T04:36:33;124.20;;;71.63;;
21890;SDS011;11110;52.386;16.940;2023-03-09T04:39:01;118.50;;;70.10;;
21890;SDS011;11110;52.386;16.940;2023-03-09T04:41:33;118.83;;;69.43;;
21890;SDS011;11110;52.386;16.940;2023-03-09T04:44:04;125.27;;;70.60;;
21890;SDS011;11110;52.386;16.940;2023-03-09T04:46:33;133.30;;;70.40;;
21890;SDS011;11110;52.386;16.940;2023-03-09T04:49:06;123.17;;;70.40;;
21890;SDS011;11110;52.386;16.940;2023-03-09T04:51:35;123.53;;;70.50;;
21890;SDS011;11110;52.386;16.940;2023-03-09T04:54:04;123.83;;;70.80;;
21890;SDS011;11110;52.386;16.940;2023-03-09T04:56:33;124.33;;;69.83;;
21890;SDS011;11110;52.386;16.940;2023-03-09T04:59:07;125.30;;;67.80;;
21890;SDS011;11110;52.386;16.940;2023-03-09T05:01:36;125.63;;;69.73;;
21890;SDS011;11110;52.386;16.940;2023-03-09T05:04:11;121.50;;;67.30;;
21890;SDS011;11110;52.386;16.940;2023-03-09T05:06:47;123.90;;;72.67;;
21890;SDS011;11110;52.386;16.940;2023-03-09T05:09:17;121.10;;;71.20;;
21890;SDS011;11110;52.386;16.940;2023-03-09T05:11:47;124.67;;;70.23;;
21890;SDS011;11110;52.386;16.940;2023-03-09T05:14:22;115.90;;;68.80;;
21890;SDS011;11110;52.386;16.940;2023-03-09T05:16:51;116.23;;;69.43;;
21890;SDS011;11110;52.386;16.940;2023-03-09T05:19:24;118.73;;;68.53;;
21890;SDS011;11110;52.386;16.940;2023-03-09T05:21:56;123.33;;;70.47;;
21890;SDS011;11110;52.386;16.940;2023-03-09T05:24:25;116.13;;;69.77;;
21890;SDS011;11110;52.386;16.940;2023-03-09T05:26:55;121.43;;;71.77;;
21890;SDS011;11110;52.386;16.940;2023-03-09T05:29:27;121.17;;;69.83;;
21890;SDS011;11110;52.386;16.940;2023-03-09T05:31:56;118.37;;;70.67;;
21890;SDS011;11110;52.386;16.940;2023-03-09T05:34:27;125.60;;;72.80;;
21890;SDS011;11110;52.386;16.940;2023-03-09T05:36:58;133.33;;;72.07;;
21890;SDS011;11110;52.386;16.940;2023-03-09T05:39:27;119.13;;;69.80;;
21890;SDS011;11110;52.386;16.940;2023-03-09T05:41:56;118.73;;;70.20;;
21890;SDS011;11110;52.386;16.940;2023-03-09T05:44:31;120.23;;;70.57;;
21890;SDS011;11110;52.386;16.940;2023-03-09T05:47:01;122.80;;;73.93;;
21890;SDS011;11110;52.386;16.940;2023-03-09T05:49:31;121.40;;;71.27;;
21890;SDS011;11110;52.386;16.940;2023-03-09T05:52:00;115.30;;;69.80;;
21890;SDS011;11110;52.386;16.940;2023-03-09T05:54:30;122.63;;;72.53;;
21890;SDS011;11110;52.386;16.940;2023-03-09T05:57:05;118.23;;;75.13;;
21890;SDS011;11110;52.386;16.940;2023-03-09T05:59:34;119.37;;;70.03;;
21890;SDS011;11110;52.386;16.940;2023-03-09T06:02:03;117.17;;;72.60;;
21890;SDS011;11110;52.386;16.940;2023-03-09T06:04:34;111.93;;;72.80;;
21890;SDS011;11110;52.386;16.940;2023-03-09T06:07:06;112.77;;;71.20;;
21890;SDS011;11110;52.386;16.940;2023-03-09T06:09:40;106.73;;;68.13;;
21890;SDS011;11110;52.386;16.940;2023-03-09T06:12:16;114.17;;;72.63;;
21890;SDS011;11110;52.386;16.940;2023-03-09T06:14:47;109.53;;;68.87;;
21890;SDS011;11110;52.386;16.940;2023-03-09T06:17:18;107.17;;;72.53;;
21890;SDS011;11110;52.386;16.940;2023-03-09T06:19:48;110.17;;;68.50;;
21890;SDS011;11110;52.386;16.940;2023-03-09T06:22:17;110.07;;;70.17;;
21890;SDS011;11110;52.386;16.940;2023-03-09T06:24:48;112.47;;;72.97;;
21890;SDS011;11110;52.386;16.940;2023-03-09T06:27:17;117.77;;;69.83;;
21890;SDS011;11110;52.386;16.940;2023-03-09T06:29:46;115.40;;;71.13;;
21890;SDS011;11110;52.386;16.940;2023-03-09T06:32:15;112.17;;;70.27;;
21890;SDS011;11110;52.386;16.940;2023-03-09T06:34:45;108.80;;;67.63;;
21890;SDS011;11110;52.386;16.940;2023-03-09T06:37:17;119.90;;;73.10;;
21890;SDS011;11110;52.386;16.940;2023-03-09T06:39:47;107.93;;;67.97;;
21890;SDS011;11110;52.386;16.940;2023-03-09T06:42:16;116.13;;;70.67;;
21890;SDS011;11110;52.386;16.940;2023-03-09T06:44:54;114.83;;;72.07;;
21890;SDS011;11110;52.386;16.940;2023-03-09T06:47:27;104.07;;;69.07;;
21890;SDS011;11110;52.386;16.940;2023-03-09T06:50:01;110.47;;;70.97;;
21890;SDS011;11110;52.386;16.940;2023-03-09T06:52:36;105.67;;;70.30;;
21890;SDS011;11110;52.386;16.940;2023-03-09T06:55:06;109.57;;;71.47;;
21890;SDS011;11110;52.386;16.940;2023-03-09T06:57:45;108.53;;;70.93;;
21890;SDS011;11110;52.386;16.940;2023-03-09T07:00:14;106.00;;;67.87;;
21890;SDS011;11110;52.386;16.940;2023-03-09T07:02:48;112.93;;;66.87;;
21890;SDS011;11110;52.386;16.940;2023-03-09T07:05:16;113.93;;;67.30;;
21890;SDS011;11110;52.386;16.940;2023-03-09T07:07:46;114.10;;;68.60;;
21890;SDS011;11110;52.386;16.940;2023-03-09T07:10:15;116.77;;;69.97;;
21890;SDS011;11110;52.386;16.940;2023-03-09T07:12:44;109.77;;;66.97;;
21890;SDS011;11110;52.386;16.940;2023-03-09T07:15:15;116.33;;;72.23;;
21890;SDS011;11110;52.386;16.940;2023-03-09T07:17:45;116.63;;;72.33;;
21890;SDS011;11110;52.386;16.940;2023-03-09T07:20:14;104.80;;;70.13;;
21890;SDS011;11110;52.386;16.940;2023-03-09T07:22:42;106.83;;;69.20;;
21890;SDS011;11110;52.386;16.940;2023-03-09T07:25:12;114.97;;;69.40;;
21890;SDS011;11110;52.386;16.940;2023-03-09T07:27:41;113.23;;;66.73;;
21890;SDS011;11110;52.386;16.940;2023-03-09T07:30:10;116.83;;;70.63;;
21890;SDS011;11110;52.386;16.940;2023-03-09T07:32:40;119.93;;;69.07;;
21890;SDS011;11110;52.386;16.940;2023-03-09T07:35:09;112.57;;;67.00;;
21890;SDS011;11110;52.386;16.940;2023-03-09T07:37:37;112.53;;;68.47;;
21890;SDS011;11110;52.386;16.940;2023-03-09T07:40:08;115.63;;;75.07;;
21890;SDS011;11110;52.386;16.940;2023-03-09T07:42:40;113.40;;;68.70;;
21890;SDS011;11110;52.386;16.940;2023-03-09T07:45:30;111.70;;;67.77;;
21890;SDS011;11110;52.386;16.940;2023-03-09T07:47:59;112.97;;;70.17;;
21890;SDS011;11110;52.386;16.940;2023-03-09T07:50:27;114.40;;;68.53;;
21890;SDS011;11110;52.386;16.940;2023-03-09T07:52:56;109.73;;;71.30;;
21890;SDS011;11110;52.386;16.940;2023-03-09T07:55:25;112.53;;;71.27;;
21890;SDS011;11110;52.386;16.940;2023-03-09T07:57:57;109.80;;;70.07;;
21890;SDS011;11110;52.386;16.940;2023-03-09T08:00:26;110.07;;;71.77;;
21890;SDS011;11110;52.386;16.940;2023-03-09T08:02:55;112.10;;;69.70;;
21890;SDS011;11110;52.386;16.940;2023-03-09T08:05:25;111.10;;;68.97;;
21890;SDS011;11110;52.386;16.940;2023-03-09T08:07:54;113.90;;;68.13;;
21890;SDS011;11110;52.386;16.940;2023-03-09T08:10:22;109.17;;;67.17;;
21890;SDS011;11110;52.386;16.940;2023-03-09T08:12:51;111.97;;;69.37;;
21890;SDS011;11110;52.386;16.940;2023-03-09T08:15:21;113.57;;;71.60;;
21890;SDS011;11110;52.386;16.940;2023-03-09T08:17:50;116.17;;;70.23;;
21890;SDS011;11110;52.386;16.940;2023-03-09T08:20:19;119.27;;;71.07;;
21890;SDS011;11110;52.386;16.940;2023-03-09T08:22:48;111.60;;;69.53;;
21890;SDS011;11110;52.386;16.940;2023-03-09T08:25:17;110.70;;;68.90;;
21890;SDS011;11110;52.386;16.940;2023-03-09T08:27:45;119.80;;;70.90;;
21890;SDS011;11110;52.386;16.940;2023-03-09T08:30:15;112.20;;;71.00;;
21890;SDS011;11110;52.386;16.940;2023-03-09T08:32:49;110.40;;;69.67;;
21890;SDS011;11110;52.386;16.940;2023-03-09T08:35:20;119.63;;;72.60;;
21890;SDS011;11110;52.386;16.940;2023-03-09T08:37:52;113.90;;;69.83;;
21890;SDS011;11110;52.386;16.940;2023-03-09T08:40:20;113.80;;;71.87;;
21890;SDS011;11110;52.386;16.940;2023-03-09T08:42:49;114.23;;;70.83;;
21890;SDS011;11110;52.386;16.940;2023-03-09T08:45:18;114.93;;;71.00;;
21890;SDS011;11110;52.386;16.940;2023-03-09T08:47:48;125.37;;;73.40;;
21890;SDS011;11110;52.386;16.940;2023-03-09T08:50:17;109.07;;;69.90;;
21890;SDS011;11110;52.386;16.940;2023-03-09T08:52:45;111.27;;;68.27;;
21890;SDS011;11110;52.386;16.940;2023-03-09T08:55:14;110.80;;;68.53;;
21890;SDS011;11110;52.386;16.940;2023-03-09T08:57:43;116.60;;;72.77;;
21890;SDS011;11110;52.386;16.940;2023-03-09T09:00:12;115.10;;;73.43;;
21890;SDS011;11110;52.386;16.940;2023-03-09T09:02:42;109.77;;;72.83;;
21890;SDS011;11110;52.386;16.940;2023-03-09T09:05:12;120.60;;;74.63;;
21890;SDS011;11110;52.386;16.940;2023-03-09T09:07:41;106.97;;;71.53;;
21890;SDS011;11110;52.386;16.940;2023-03-09T09:10:11;115.23;;;74.07;;
21890;SDS011;11110;52.386;16.940;2023-03-09T09:13:00;106.70;;;72.73;;
21890;SDS011;11110;52.386;16.940;2023-03-09T09:15:29;107.47;;;70.50;;
21890;SDS011;11110;52.386;16.940;2023-03-09T09:17:58;116.00;;;70.37;;
21890;SDS011;11110;52.386;16.940;2023-03-09T09:20:28;117.37;;;71.80;;
21890;SDS011;11110;52.386;16.940;2023-03-09T09:22:56;108.67;;;67.80;;
21890;SDS011;11110;52.386;16.940;2023-03-09T09:25:25;110.47;;;68.57;;
21890;SDS011;11110;52.386;16.940;2023-03-09T09:27:54;108.93;;;69.33;;
21890;SDS011;11110;52.386;16.940;2023-03-09T09:30:23;112.67;;;67.23;;
21890;SDS011;11110;52.386;16.940;2023-03-09T09:32:52;110.37;;;68.77;;
21890;SDS011;11110;52.386;16.940;2023-03-09T09:35:20;117.93;;;69.80;;
21890;SDS011;11110;52.386;16.940;2023-03-09T09:37:50;113.27;;;66.83;;
21890;SDS011;11110;52.386;16.940;2023-03-09T09:40:21;112.00;;;68.10;;
21890;SDS011;11110;52.386;16.940;2023-03-09T09:42:50;118.07;;;68.67;;
21890;SDS011;11110;52.386;16.940;2023-03-09T09:45:28;106.47;;;66.97;;
21890;SDS011;11110;52.386;16.940;2023-03-09T09:48:00;109.03;;;68.60;;
21890;SDS011;11110;52.386;16.940;2023-03-09T09:50:36;105.17;;;67.47;;
21890;SDS011;11110;52.386;16.940;2023-03-09T09:53:21;103.90;;;68.57;;
21890;SDS011;11110;52.386;16.940;2023-03-09T09:55:58;94.30;;;66.87;;
21890;SDS011;11110;52.386;16.940;2023-03-09T09:58:30;106.67;;;70.10;;
21890;SDS011;11110;52.386;16.940;2023-03-09T10:01:05;109.63;;;69.40;;
21890;SDS011;11110;52.386;16.940;2023-03-09T10:03:42;103.17;;;67.50;;
21890;SDS011;11110;52.386;16.940;2023-03-09T10:06:14;110.80;;;70.03;;
21890;SDS011;11110;52.386;16.940;2023-03-09T10:08:47;104.17;;;70.20;;
21890;SDS011;11110;52.386;16.940;2023-03-09T10:11:22;102.43;;;68.80;;
21890;SDS011;11110;52.386;16.940;2023-03-09T10:13:55;106.70;;;72.27;;
21890;SDS011;11110;52.386;16.940;2023-03-09T10:16:28;104.30;;;68.03;;
21890;SDS011;11110;52.386;16.940;2023-03-09T10:19:05;105.73;;;68.43;;
21890;SDS011;11110;52.386;16.940;2023-03-09T10:21:51;103.27;;;70.53;;
21890;SDS011;11110;52.386;16.940;2023-03-09T10:24:24;109.00;;;71.23;;
21890;SDS011;11110;52.386;16.940;2023-03-09T10:26:55;116.93;;;71.67;;
21890;SDS011;11110;52.386;16.940;2023-03-09T10:29:37;106.13;;;70.10;;
21890;SDS011;11110;52.386;16.940;2023-03-09T10:32:16;113.13;;;71.57;;
21890;SDS011;11110;52.386;16.940;2023-03-09T10:34:55;113.60;;;69.53;;
21890;SDS011;11110;52.386;16.940;2023-03-09T10:37:27;114.53;;;70.43;;
21890;SDS011;11110;52.386;16.940;2023-03-09T10:40:03;111.37;;;69.30;;
21890;SDS011;11110;52.386;16.940;2023-03-09T10:42:41;101.33;;;70.47;;
21890;SDS011;11110;52.386;16.940;2023-03-09T10:45:15;106.30;;;70.03;;
21890;SDS011;11110;52.386;16.940;2023-03-09T10:47:50;110.30;;;70.27;;
21890;SDS011;11110;52.386;16.940;2023-03-09T10:50:24;111.83;;;70.80;;
21890;SDS011;11110;52.386;16.940;2023-03-09T10:52:55;104.77;;;70.50;;
21890;SDS011;11110;52.386;16.940;2023-03-09T10:55:31;107.07;;;71.30;;
21890;SDS011;11110;52.386;16.940;2023-03-09T10:58:14;113.10;;;70.33;;
21890;SDS011;11110;52.386;16.940;2023-03-09T11:00:49;108.40;;;68.83;;
21890;SDS011;11110;52.386;16.940;2023-03-09T11:03:23;104.37;;;67.37;;
21890;SDS011;11110;52.386;16.940;2023-03-09T11:05:53;113.53;;;69.50;;
21890;SDS011;11110;52.386;16.940;2023-03-09T11:08:53;109.20;;;69.00;;
21890;SDS011;11110;52.386;16.940;2023-03-09T11:11:42;102.67;;;68.47;;
21890;SDS011;11110;52.386;16.940;2023-03-09T11:14:20;105.47;;;68.20;;
21890;SDS011;11110;52.386;16.940;2023-03-09T11:16:52;110.23;;;73.47;;
21890;SDS011;11110;52.386;16.940;2023-03-09T11:19:22;103.30;;;70.67;;
21890;SDS011;11110;52.386;16.940;2023-03-09T11:21:52;107.70;;;71.17;;
21890;SDS011;11110;52.386;16.940;2023-03-09T11:24:29;100.70;;;69.13;;
21890;SDS011;11110;52.386;16.940;2023-03-09T11:27:04;109.37;;;69.90;;
21890;SDS011;11110;52.386;16.940;2023-03-09T11:29:42;102.00;;;68.37;;
21890;SDS011;11110;52.386;16.940;2023-03-09T11:32:18;100.77;;;67.27;;
21890;SDS011;11110;52.386;16.940;2023-03-09T11:34:46;103.13;;;67.53;;
21890;SDS011;11110;52.386;16.940;2023-03-09T11:37:17;111.30;;;67.50;;
21890;SDS011;11110;52.386;16.940;2023-03-09T11:39:50;101.10;;;66.73;;
21890;SDS011;11110;52.386;16.940;2023-03-09T11:42:27;99.73;;;67.57;;
21890;SDS011;11110;52.386;16.940;2023-03-09T11:45:01;101.70;;;68.07;;
21890;SDS011;11110;52.386;16.940;2023-03-09T11:47:32;108.07;;;68.93;;
21890;SDS011;11110;52.386;16.940;2023-03-09T11:50:06;97.77;;;66.17;;
21890;SDS011;11110;52.386;16.940;2023-03-09T11:52:42;97.00;;;67.40;;
21890;SDS011;11110;52.386;16.940;2023-03-09T11:55:15;94.53;;;67.10;;
21890;SDS011;11110;52.386;16.940;2023-03-09T11:57:48;94.37;;;67.07;;
21890;SDS011;11110;52.386;16.940;2023-03-09T12:00:22;99.00;;;68.40;;
21890;SDS011;11110;52.386;16.940;2023-03-09T12:02:54;97.90;;;68.03;;
21890;SDS011;11110;52.386;16.940;2023-03-09T12:05:26;92.47;;;65.80;;
21890;SDS011;11110;52.386;16.940;2023-03-09T12:08:02;88.27;;;63.77;;
21890;SDS011;11110;52.386;16.940;2023-03-09T12:10:34;90.00;;;63.20;;
21890;SDS011;11110;52.386;16.940;2023-03-09T12:13:10;97.27;;;64.90;;
21890;SDS011;11110;52.386;16.940;2023-03-09T12:15:46;94.80;;;64.33;;
21890;SDS011;11110;52.386;16.940;2023-03-09T12:18:20;97.13;;;65.90;;
21890;SDS011;11110;52.386;16.940;2023-03-09T12:20:51;106.90;;;70.20;;
21890;SDS011;11110;52.386;16.940;2023-03-09T12:26:19;103.20;;;70.03;;
21890;SDS011;11110;52.386;16.940;2023-03-09T12:29:15;106.97;;;67.27;;
21890;SDS011;11110;52.386;16.940;2023-03-09T12:32:09;96.87;;;68.20;;
21890;SDS011;11110;52.386;16.940;2023-03-09T12:35:04;98.40;;;67.60;;
21890;SDS011;11110;52.386;16.940;2023-03-09T12:40:36;91.27;;;67.20;;
21890;SDS011;11110;52.386;16.940;2023-03-09T12:49:12;101.83;;;71.10;;
21890;SDS011;11110;52.386;16.940;2023-03-09T12:51:42;93.90;;;68.63;;
21890;SDS011;11110;52.386;16.940;2023-03-09T12:54:21;100.13;;;70.30;;
21890;SDS011;11110;52.386;16.940;2023-03-09T12:56:51;92.50;;;68.13;;
21890;SDS011;11110;52.386;16.940;2023-03-09T12:59:22;96.00;;;69.30;;
21890;SDS011;11110;52.386;16.940;2023-03-09T13:01:56;92.30;;;68.77;;
21890;SDS011;11110;52.386;16.940;2023-03-09T13:04:27;99.50;;;69.00;;
21890;SDS011;11110;52.386;16.940;2023-03-09T13:07:13;102.77;;;69.50;;
21890;SDS011;11110;52.386;16.940;2023-03-09T13:09:46;101.43;;;71.50;;
21890;SDS011;11110;52.386;16.940;2023-03-09T13:12:33;97.90;;;70.23;;
21890;SDS011;11110;52.386;16.940;2023-03-09T13:15:03;94.20;;;67.93;;
21890;SDS011;11110;52.386;16.940;2023-03-09T13:18:04;97.13;;;68.87;;
21890;SDS011;11110;52.386;16.940;2023-03-09T13:20:41;90.60;;;68.00;;
21890;SDS011;11110;52.386;16.940;2023-03-09T13:23:10;95.07;;;66.43;;
21890;SDS011;11110;52.386;16.940;2023-03-09T13:25:49;92.97;;;66.40;;
21890;SDS011;11110;52.386;16.940;2023-03-09T13:28:23;88.40;;;65.97;;
21890;SDS011;11110;52.386;16.940;2023-03-09T13:31:00;93.77;;;66.97;;
21890;SDS011;11110;52.386;16.940;2023-03-09T13:33:34;90.17;;;64.60;;
21890;SDS011;11110;52.386;16.940;2023-03-09T13:36:10;97.90;;;64.73;;
21890;SDS011;11110;52.386;16.940;2023-03-09T13:38:43;90.67;;;63.37;;
21890;SDS011;11110;52.386;16.940;2023-03-09T13:41:21;88.60;;;64.93;;
21890;SDS011;11110;52.386;16.940;2023-03-09T13:43:52;95.47;;;66.90;;
21890;SDS011;11110;52.386;16.940;2023-03-09T13:46:23;86.40;;;63.70;;
21890;SDS011;11110;52.386;16.940;2023-03-09T13:48:59;86.90;;;64.73;;
21890;SDS011;11110;52.386;16.940;2023-03-09T13:51:37;95.00;;;64.57;;
21890;SDS011;11110;52.386;16.940;2023-03-09T13:54:23;96.93;;;66.93;;
21890;SDS011;11110;52.386;16.940;2023-03-09T13:57:09;87.73;;;64.33;;
21890;SDS011;11110;52.386;16.940;2023-03-09T13:59:45;93.97;;;65.97;;
21890;SDS011;11110;52.386;16.940;2023-03-09T14:02:21;91.93;;;65.33;;
21890;SDS011;11110;52.386;16.940;2023-03-09T14:05:01;96.83;;;67.53;;
21890;SDS011;11110;52.386;16.940;2023-03-09T14:07:53;97.33;;;65.37;;
21890;SDS011;11110;52.386;16.940;2023-03-09T14:10:24;94.23;;;66.97;;
21890;SDS011;11110;52.386;16.940;2023-03-09T14:12:56;97.77;;;66.73;;
21890;SDS011;11110;52.386;16.940;2023-03-09T14:15:28;95.33;;;67.77;;
21890;SDS011;11110;52.386;16.940;2023-03-09T14:17:58;103.00;;;68.93;;
21890;SDS011;11110;52.386;16.940;2023-03-09T14:20:30;91.20;;;66.37;;
21890;SDS011;11110;52.386;16.940;2023-03-09T14:23:15;94.33;;;65.83;;
21890;SDS011;11110;52.386;16.940;2023-03-09T14:25:44;96.17;;;66.37;;
21890;SDS011;11110;52.386;16.940;2023-03-09T14:28:23;95.40;;;64.17;;
21890;SDS011;11110;52.386;16.940;2023-03-09T14:30:52;98.23;;;63.70;;
21890;SDS011;11110;52.386;16.940;2023-03-09T14:33:23;88.60;;;63.20;;
21890;SDS011;11110;52.386;16.940;2023-03-09T14:36:07;92.23;;;63.67;;
21890;SDS011;11110;52.386;16.940;2023-03-09T14:38:54;92.57;;;64.10;;
21890;SDS011;11110;52.386;16.940;2023-03-09T14:41:25;94.00;;;66.53;;